Time;durP1;ratioP1;P1;durP2;ratioP2;P2;SDS_P1;SDS_P2;PMS_P1;PMS_P2;Temp;Humidity;BMP_temperature;BMP_pressure;BME280_temperature;BME280_humidity;BME280_pressure;Samples;Min_cycle;Max_cycle;Signal;HPM_P1;HPM_P2
2023/05/16 00:01:15;;;;;;;;;5.60;5.60;;;;;16.88;55.33;98205.00;6057930;28;96318;-63
2023/05/16 00:04:20;;;;;;;;;5.00;5.00;;;;;16.86;55.15;98217.22;6072583;28;96527;-62
2023/05/16 00:07:23;;;;;;;;;4.00;4.00;;;;;16.83;55.38;98215.06;6057905;28;96976;-63
2023/05/16 00:10:27;;;;;;;;;5.60;5.00;;;;;16.81;55.38;98206.41;6075738;28;96357;-62
2023/05/16 00:13:30;;;;;;;;;4.00;4.00;;;;;16.80;55.28;98202.84;6068414;28;96995;-62
2023/05/16 00:16:35;;;;;;;;;5.00;4.25;;;;;16.74;55.39;98217.56;6076637;28;96407;-63
2023/05/16 00:19:40;;;;;;;;;5.00;5.00;;;;;16.71;55.26;98220.81;6040022;28;96712;-62
2023/05/16 00:22:45;;;;;;;;;5.00;5.00;;;;;16.68;55.33;98223.28;6058639;28;97170;-62
2023/05/16 00:25:48;;;;;;;;;4.00;4.00;;;;;16.66;55.51;98228.22;6068698;28;96237;-63
2023/05/16 00:28:51;;;;;;;;;6.00;6.00;;;;;16.66;55.38;98226.31;6071447;28;96330;-63
2023/05/16 00:31:55;;;;;;;;;4.80;4.20;;;;;16.70;55.24;98232.00;6048270;28;97544;-62
2023/05/16 00:35:00;;;;;;;;;6.00;6.00;;;;;16.67;55.37;98227.91;6056801;28;96392;-62
2023/05/16 00:38:04;;;;;;;;;5.00;5.00;;;;;16.67;55.19;98229.81;6073880;28;96591;-62
2023/05/16 00:41:07;;;;;;;;;4.00;4.00;;;;;16.67;55.31;98230.63;6058333;28;96532;-62
2023/05/16 00:44:12;;;;;;;;;5.00;5.00;;;;;16.66;55.32;98236.38;6042200;28;96488;-63
2023/05/16 00:47:15;;;;;;;;;5.25;5.00;;;;;16.67;55.24;98235.25;6056281;28;96357;-61
2023/05/16 00:50:20;;;;;;;;;5.60;5.00;;;;;16.66;55.28;98237.19;6070657;28;96333;-63
2023/05/16 00:53:25;;;;;;;;;3.00;3.00;;;;;16.68;55.13;98237.72;6040045;28;96280;-62
2023/05/16 00:56:28;;;;;;;;;4.00;3.00;;;;;16.61;55.18;98237.22;6045961;28;98406;-62
2023/05/16 00:59:32;;;;;;;;;5.00;5.00;;;;;16.67;55.21;98251.59;6069650;28;96355;-63
2023/05/16 01:02:36;;;;;;;;;4.00;4.00;;;;;16.62;55.16;98257.06;6063669;28;96850;-62
2023/05/16 01:05:41;;;;;;;;;4.00;4.00;;;;;16.60;55.29;98248.38;6065070;28;96318;-62
2023/05/16 01:08:45;;;;;;;;;5.40;5.40;;;;;16.56;55.57;98237.19;6073005;28;96382;-62
2023/05/16 01:11:55;;;;;;;;;4.00;4.00;;;;;16.59;55.15;98233.94;6072787;28;96371;-61
2023/05/16 01:15:05;;;;;;;;;5.20;5.00;;;;;16.67;55.06;98238.81;6057366;28;96777;-62
2023/05/16 01:18:16;;;;;;;;;3.60;3.60;;;;;16.70;55.00;98235.56;6077259;28;96450;-62
2023/05/16 01:21:39;;;;;;;;;3.00;3.00;;;;;16.64;54.98;98242.09;6049255;28;96357;-62
2023/05/16 01:24:55;;;;;;;;;4.00;4.00;;;;;16.70;55.17;98242.91;6080472;28;98507;-62
2023/05/16 01:28:01;;;;;;;;;4.00;3.00;;;;;16.70;55.01;98242.91;6054351;28;96656;-62
2023/05/16 01:31:05;;;;;;;;;3.50;3.50;;;;;16.73;54.85;98234.97;6043875;28;98437;-61
2023/05/16 01:34:09;;;;;;;;;4.00;4.00;;;;;16.74;54.74;98241.25;6051852;28;96734;-62
2023/05/16 01:37:19;;;;;;;;;4.00;3.80;;;;;16.76;54.74;98239.06;6077039;28;96620;-63
2023/05/16 01:40:35;;;;;;;;;4.00;4.00;;;;;16.77;54.88;98241.50;6046218;28;96634;-62
2023/05/16 01:43:44;;;;;;;;;2.80;2.00;;;;;16.73;54.91;98239.59;6077918;28;97598;-63
2023/05/16 01:46:52;;;;;;;;;5.00;5.00;;;;;16.71;54.71;98233.66;6077915;28;96342;-63
2023/05/16 01:50:02;;;;;;;;;5.00;5.00;;;;;16.67;54.91;98238.81;6077302;28;96539;-62
2023/05/16 01:53:10;;;;;;;;;5.25;5.00;;;;;16.64;54.70;98233.94;6048381;28;96827;-62
2023/05/16 01:56:16;;;;;;;;;4.25;4.25;;;;;16.63;54.94;98232.28;6060998;28;96298;-62
2023/05/16 01:59:23;;;;;;;;;4.40;4.40;;;;;16.61;54.99;98234.50;6049885;28;96583;-62
2023/05/16 02:02:28;;;;;;;;;4.20;4.00;;;;;16.63;54.69;98237.72;6047897;28;97041;-62
2023/05/16 02:05:32;;;;;;;;;5.20;5.20;;;;;16.63;54.80;98226.84;6072455;28;96503;-63
2023/05/16 02:08:35;;;;;;;;;6.00;5.60;;;;;16.61;54.82;98229.06;6057090;28;97660;-62
2023/05/16 02:11:38;;;;;;;;;4.00;3.00;;;;;16.62;54.55;98230.66;6052610;28;96233;-61
2023/05/16 02:14:43;;;;;;;;;5.00;5.00;;;;;16.65;54.63;98234.75;6067835;28;96725;-62
2023/05/16 02:17:47;;;;;;;;;4.00;4.00;;;;;16.62;54.44;98227.13;6040433;28;97188;-63
2023/05/16 02:20:51;;;;;;;;;3.25;3.25;;;;;16.64;54.42;98230.38;6068570;28;96710;-63
2023/05/16 02:23:54;;;;;;;;;4.00;4.00;;;;;16.61;54.41;98236.41;6052390;28;96706;-63
2023/05/16 02:26:58;;;;;;;;;5.00;4.00;;;;;16.54;54.66;98231.19;6063577;28;96423;-62
2023/05/16 02:30:03;;;;;;;;;5.60;5.60;;;;;16.55;54.49;98237.47;6054077;28;96279;-63
2023/05/16 02:33:06;;;;;;;;;3.40;3.40;;;;;16.59;54.46;98235.84;6070699;28;96457;-62
2023/05/16 02:36:10;;;;;;;;;2.75;2.50;;;;;16.61;54.36;98241.84;6059682;28;96308;-62
2023/05/16 02:39:13;;;;;;;;;3.00;3.00;;;;;16.62;54.26;98233.38;6060745;28;96442;-62
2023/05/16 02:42:17;;;;;;;;;3.00;2.50;;;;;16.62;54.32;98238.81;6071820;28;96294;-63
2023/05/16 02:45:22;;;;;;;;;6.00;6.00;;;;;16.62;54.24;98233.38;6057623;28;96231;-63
2023/05/16 02:48:25;;;;;;;;;4.40;4.40;;;;;16.59;54.21;98230.41;6039246;28;98592;-63
2023/05/16 02:51:29;;;;;;;;;6.40;6.40;;;;;16.64;54.22;98241.28;6058590;28;96671;-63
2023/05/16 02:54:34;;;;;;;;;4.00;4.00;;;;;16.61;54.12;98247.28;6077939;28;96115;-63
2023/05/16 02:57:37;;;;;;;;;6.60;5.60;;;;;16.64;54.09;98249.44;6065020;28;96656;-63
2023/05/16 03:00:41;;;;;;;;;4.00;4.00;;;;;16.54;54.10;98244.00;6067903;28;97496;-62
2023/05/16 03:03:45;;;;;;;;;3.33;3.33;;;;;16.63;54.04;98272.28;6050119;28;96675;-63
2023/05/16 03:06:49;;;;;;;;;4.50;4.00;;;;;16.66;53.93;98258.16;6069356;28;98191;-63
2023/05/16 03:09:53;;;;;;;;;4.00;4.00;;;;;16.68;53.96;98258.69;6043925;28;96708;-62
2023/05/16 03:12:56;;;;;;;;;3.00;3.00;;;;;16.70;54.12;98251.88;6063105;28;96104;-62
2023/05/16 03:16:01;;;;;;;;;4.00;4.00;;;;;16.68;53.92;98245.88;6061542;28;96902;-63
2023/05/16 03:19:05;;;;;;;;;3.00;3.00;;;;;16.67;54.16;98252.41;6049850;28;96426;-62
2023/05/16 03:22:08;;;;;;;;;4.00;3.80;;;;;16.71;54.15;98245.31;6062504;28;97862;-62
2023/05/16 03:25:12;;;;;;;;;4.00;4.00;;;;;16.79;53.86;98243.94;6065345;28;96422;-63
2023/05/16 03:28:17;;;;;;;;;3.00;3.00;;;;;16.81;54.10;98241.78;6044295;28;96335;-62
2023/05/16 03:31:22;;;;;;;;;4.00;4.00;;;;;16.83;54.64;98250.47;6040952;28;98610;-62
2023/05/16 03:34:25;;;;;;;;;4.00;4.00;;;;;16.84;54.43;98252.91;6057684;28;96509;-62
2023/05/16 03:37:30;;;;;;;;;4.00;4.00;;;;;16.86;54.46;98258.88;6075006;28;96237;-63
2023/05/16 03:40:33;;;;;;;;;4.00;4.00;;;;;16.78;54.32;98264.91;6070020;28;96411;-63
2023/05/16 03:43:37;;;;;;;;;5.00;4.00;;;;;16.91;54.22;98279.84;6040659;28;96500;-63
2023/05/16 03:46:42;;;;;;;;;5.00;4.00;;;;;16.95;54.33;98275.50;6062359;28;96589;-62
2023/05/16 03:49:45;;;;;;;;;4.40;4.00;;;;;17.00;54.24;98271.94;6045636;28;96709;-62
2023/05/16 03:52:49;;;;;;;;;5.00;4.00;;;;;17.03;54.63;98271.38;6039341;28;99976;-63
2023/05/16 03:55:52;;;;;;;;;5.00;4.00;;;;;17.05;54.62;98275.44;6048622;28;96594;-63
2023/05/16 03:58:57;;;;;;;;;4.00;4.00;;;;;17.09;54.60;98268.34;6049064;28;96830;-62
2023/05/16 04:02:01;;;;;;;;;6.00;6.00;;;;;17.13;54.53;98271.31;6053621;28;97052;-63
2023/05/16 04:05:06;;;;;;;;;6.00;5.25;;;;;17.18;54.36;98271.31;6055305;28;96402;-62
2023/05/16 04:08:10;;;;;;;;;6.00;5.00;;;;;17.28;54.07;98268.53;6061864;28;96906;-62
2023/05/16 04:11:13;;;;;;;;;3.50;3.50;;;;;17.43;53.68;98270.38;6055816;28;96356;-62
2023/05/16 04:14:16;;;;;;;;;5.00;5.00;;;;;17.54;52.68;98280.94;6069457;28;96074;-62
2023/05/16 04:17:21;;;;;;;;;3.00;3.00;;;;;17.64;52.60;98278.16;6051920;28;98609;-62
2023/05/16 04:20:24;;;;;;;;;4.00;3.50;;;;;17.83;52.12;98281.06;6072540;28;96731;-62
2023/05/16 04:23:27;;;;;;;;;5.00;4.40;;;;;18.00;51.84;98284.19;6057182;28;96259;-62
2023/05/16 04:26:31;;;;;;;;;3.00;3.00;;;;;18.14;51.38;98282.44;6065841;28;96525;-63
2023/05/16 04:29:34;;;;;;;;;3.20;3.20;;;;;18.31;50.93;98294.88;6054348;28;96842;-62
2023/05/16 04:32:38;;;;;;;;;4.00;4.00;;;;;18.43;50.85;98287.09;6062187;28;96311;-62
2023/05/16 04:35:42;;;;;;;;;5.00;5.00;;;;;18.57;50.58;98304.47;6084016;28;96302;-62
2023/05/16 04:38:45;;;;;;;;;5.00;4.00;;;;;18.63;49.87;98299.78;6075584;28;96456;-62
2023/05/16 04:41:48;;;;;;;;;6.50;6.00;;;;;18.78;49.97;98307.81;6040037;28;97874;-62
2023/05/16 04:44:52;;;;;;;;;5.00;5.00;;;;;18.87;49.09;98311.53;6050286;28;98863;-63
2023/05/16 04:47:57;;;;;;;;;5.00;5.00;;;;;18.96;48.97;98313.34;6082259;28;96281;-62
2023/05/16 04:51:01;;;;;;;;;3.00;3.00;;;;;18.97;48.40;98315.00;6086628;28;96233;-62
2023/05/16 04:54:04;;;;;;;;;6.00;6.00;;;;;19.08;48.44;98317.59;6088937;28;96264;-62
2023/05/16 04:57:07;;;;;;;;;5.00;5.00;;;;;19.20;48.44;98310.66;6088623;28;96462;-62
2023/05/16 05:00:12;;;;;;;;;4.00;4.00;;;;;19.43;48.21;98323.47;6070513;28;96980;-63
2023/05/16 05:03:17;;;;;;;;;3.80;3.00;;;;;19.55;47.35;98325.78;6094615;28;96315;-62
2023/05/16 05:06:20;;;;;;;;;5.00;5.00;;;;;19.67;47.47;98320.72;6075980;28;96882;-62
2023/05/16 05:09:24;;;;;;;;;4.00;4.00;;;;;19.66;46.67;98319.09;6061427;28;96881;-63
2023/05/16 05:12:28;;;;;;;;;4.60;4.60;;;;;19.84;47.07;98326.50;6069459;28;96269;-63
2023/05/16 05:15:31;;;;;;;;;4.00;4.00;;;;;19.97;46.94;98318.66;6079712;28;96936;-63
2023/05/16 05:18:36;;;;;;;;;3.00;3.00;;;;;20.11;45.69;98322.28;6072750;28;96176;-63
2023/05/16 05:21:39;;;;;;;;;3.00;3.00;;;;;20.19;45.40;98321.59;6062612;28;96385;-63
2023/05/16 05:24:42;;;;;;;;;3.00;3.00;;;;;20.32;45.38;98326.38;6081211;28;96394;-63
2023/05/16 05:27:46;;;;;;;;;4.00;3.80;;;;;20.45;45.39;98320.13;6082945;28;96180;-63
2023/05/16 05:30:49;;;;;;;;;4.00;4.00;;;;;20.59;45.18;98331.09;6083369;28;96986;-63
2023/05/16 05:33:55;;;;;;;;;5.00;5.00;;;;;20.79;45.83;98346.38;6069301;28;97310;-62
2023/05/16 05:36:59;;;;;;;;;6.40;5.00;;;;;20.97;45.11;98343.56;6063939;28;96661;-63
2023/05/16 05:40:02;;;;;;;;;4.00;4.00;;;;;21.01;43.99;98346.53;6081876;28;96310;-62
2023/05/16 05:43:06;;;;;;;;;4.00;4.00;;;;;21.01;43.20;98336.34;6088667;28;96276;-63
2023/05/16 05:46:10;;;;;;;;;5.00;5.00;;;;;21.15;43.98;98339.97;6039006;28;98956;-63
2023/05/16 05:49:15;;;;;;;;;4.20;4.20;;;;;21.24;43.27;98342.81;6087995;28;96214;-63
2023/05/16 05:52:18;;;;;;;;;5.40;5.00;;;;;21.33;43.29;98345.66;6088932;28;96909;-63
2023/05/16 05:55:21;;;;;;;;;3.80;3.80;;;;;21.43;42.83;98345.44;6089777;28;96643;-63
2023/05/16 05:58:25;;;;;;;;;4.75;4.75;;;;;21.62;42.32;98337.91;6089038;28;96732;-63
2023/05/16 06:01:28;;;;;;;;;4.00;4.00;;;;;21.88;43.37;98343.69;6067305;28;96336;-64
2023/05/16 06:04:33;;;;;;;;;6.00;5.00;;;;;22.01;41.56;98340.91;6069120;28;96782;-63
2023/05/16 06:07:36;;;;;;;;;5.25;5.25;;;;;22.00;41.71;98343.97;6046511;28;96221;-63
2023/05/16 06:10:39;;;;;;;;;5.00;5.00;;;;;22.03;41.97;98337.88;6062893;28;96287;-63
2023/05/16 06:13:43;;;;;;;;;6.00;6.00;;;;;22.00;41.58;98331.06;6063220;28;96291;-64
2023/05/16 06:16:46;;;;;;;;;8.00;6.60;;;;;22.00;42.38;98343.97;6062412;28;96830;-63
2023/05/16 06:19:51;;;;;;;;;6.00;5.00;;;;;22.12;41.84;98347.00;6062613;28;96270;-63
2023/05/16 06:22:54;;;;;;;;;7.40;6.40;;;;;22.31;41.68;98344.88;6046336;28;96685;-64
2023/05/16 06:25:58;;;;;;;;;7.00;6.00;;;;;22.49;41.20;98354.06;6063264;28;96345;-63
2023/05/16 06:29:01;;;;;;;;;5.25;5.00;;;;;22.53;40.38;98351.53;6068859;28;98978;-64
2023/05/16 06:32:04;;;;;;;;;5.00;4.75;;;;;22.70;41.00;98359.88;6087515;28;96257;-63
2023/05/16 06:35:09;;;;;;;;;8.00;7.00;;;;;22.77;40.74;98352.81;6068472;28;98411;-64
2023/05/16 06:38:13;;;;;;;;;7.00;6.00;;;;;22.84;40.46;98358.69;6070675;28;96669;-63
2023/05/16 06:41:16;;;;;;;;;8.00;8.00;;;;;22.96;39.87;98349.88;6087169;28;96265;-64
2023/05/16 06:44:19;;;;;;;;;6.00;6.00;;;;;23.09;39.00;98354.47;6088510;28;96895;-63
2023/05/16 06:47:23;;;;;;;;;7.00;6.20;;;;;23.09;40.14;98361.91;6070685;28;96369;-64
2023/05/16 06:50:28;;;;;;;;;9.00;9.00;;;;;23.25;39.68;98357.63;6065330;28;96307;-64
2023/05/16 06:53:31;;;;;;;;;6.00;6.00;;;;;23.28;38.46;98359.72;6047551;28;96679;-62
2023/05/16 06:56:35;;;;;;;;;8.00;8.00;;;;;23.25;38.75;98355.69;6047257;28;96657;-64
2023/05/16 06:59:38;;;;;;;;;8.00;8.00;;;;;23.33;37.81;98371.41;6064526;28;96874;-64
2023/05/16 07:02:41;;;;;;;;;7.60;6.40;;;;;23.38;38.35;98370.44;6046831;28;98395;-63
2023/05/16 07:05:46;;;;;;;;;8.40;8.40;;;;;23.48;38.40;98372.94;6047232;28;96369;-63
2023/05/16 07:08:50;;;;;;;;;7.00;7.00;;;;;23.67;37.55;98386.44;6064149;28;96290;-64
2023/05/16 07:11:53;;;;;;;;;8.25;8.25;;;;;23.68;38.19;98394.38;6088495;28;96255;-63
2023/05/16 07:14:56;;;;;;;;;8.00;8.00;;;;;23.86;37.42;98395.25;6070722;28;96780;-64
2023/05/16 07:18:00;;;;;;;;;7.00;7.00;;;;;23.93;37.42;98403.84;6089084;28;96271;-63
2023/05/16 07:21:05;;;;;;;;;7.00;7.00;;;;;24.14;37.92;98390.28;6054371;28;99025;-63
2023/05/16 07:24:08;;;;;;;;;8.00;7.00;;;;;24.47;36.87;98394.22;6089098;28;96659;-64
2023/05/16 07:27:12;;;;;;;;;9.00;9.00;;;;;24.68;37.00;98393.56;6049144;28;98428;-64
2023/05/16 07:30:15;;;;;;;;;10.00;10.00;;;;;25.08;36.43;98397.72;6071506;28;96832;-63
2023/05/16 07:33:18;;;;;;;;;9.00;8.00;;;;;25.37;35.54;98400.56;6064694;28;96332;-63
2023/05/16 07:36:23;;;;;;;;;8.00;7.20;;;;;25.32;36.00;98394.41;6065395;28;96874;-64
2023/05/16 07:39:26;;;;;;;;;9.00;7.60;;;;;25.48;34.50;98398.25;6064175;28;96147;-63
2023/05/16 07:42:30;;;;;;;;;7.00;7.00;;;;;25.70;34.83;98384.22;6046566;28;96270;-63
2023/05/16 07:45:34;;;;;;;;;10.50;8.50;;;;;25.76;35.01;98393.91;6047215;28;96318;-64
2023/05/16 07:48:37;;;;;;;;;7.00;7.00;;;;;25.98;34.20;98395.59;6045326;28;96871;-63
2023/05/16 07:51:42;;;;;;;;;7.80;7.00;;;;;26.01;33.20;98405.16;6076728;28;96271;-63
2023/05/16 07:54:46;;;;;;;;;7.00;6.00;;;;;25.92;33.74;98405.22;6053801;28;96718;-63
2023/05/16 07:57:50;;;;;;;;;9.00;8.00;;;;;25.94;34.04;98407.66;6086787;28;96287;-62
2023/05/16 08:00:53;;;;;;;;;8.40;7.40;;;;;26.10;32.92;98412.25;6087487;28;96304;-63
2023/05/16 08:03:57;;;;;;;;;9.00;8.00;;;;;26.33;34.52;98425.78;6087343;28;96259;-64
2023/05/16 08:07:01;;;;;;;;;8.20;7.80;;;;;26.61;33.67;98421.34;6063058;28;99041;-64
2023/05/16 08:10:06;;;;;;;;;6.60;6.00;;;;;27.06;34.21;98421.44;6087663;28;96317;-64
2023/05/16 08:13:09;;;;;;;;;8.40;8.00;;;;;27.33;33.44;98417.22;6072544;28;96850;-63
2023/05/16 08:16:12;;;;;;;;;7.00;7.00;;;;;27.53;32.80;98397.00;6064233;28;96294;-64
2023/05/16 08:19:16;;;;;;;;;6.00;6.00;;;;;27.60;31.47;98391.72;6064259;28;96517;-63
2023/05/16 08:22:21;;;;;;;;;8.00;7.80;;;;;27.67;31.58;98397.47;6064588;28;96312;-64
2023/05/16 08:25:24;;;;;;;;;8.00;7.40;;;;;27.79;31.05;98394.72;6048374;28;96881;-63
2023/05/16 08:28:28;;;;;;;;;6.00;6.00;;;;;27.96;31.11;98407.50;6051258;28;98632;-64
2023/05/16 08:31:31;;;;;;;;;7.60;7.00;;;;;28.03;31.08;98421.59;6068439;28;96987;-64
2023/05/16 08:34:35;;;;;;;;;10.00;8.40;;;;;27.90;31.15;98418.03;6083580;28;96334;-64
2023/05/16 08:37:40;;;;;;;;;8.20;8.20;;;;;27.88;31.03;98419.53;6063151;28;98411;-60
2023/05/16 08:40:44;;;;;;;;;7.40;7.00;;;;;28.00;31.01;98416.75;6034224;28;97538;-62
2023/05/16 08:43:47;;;;;;;;;6.80;6.00;;;;;28.26;32.10;98419.97;6077731;28;96670;-62
2023/05/16 08:46:52;;;;;;;;;8.50;8.00;;;;;28.24;29.67;98422.31;6077486;28;96307;-63
2023/05/16 08:49:57;;;;;;;;;8.00;7.60;;;;;28.35;30.77;98423.41;6089489;28;96230;-62
2023/05/16 08:53:06;;;;;;;;;9.00;8.00;;;;;28.46;29.94;98432.06;6078169;28;96289;-62
2023/05/16 08:56:11;;;;;;;;;8.40;8.00;;;;;28.44;30.63;98429.63;6078351;28;96829;-62
2023/05/16 08:59:14;;;;;;;;;9.00;9.00;;;;;28.63;30.72;98415.16;6078177;28;96353;-61
2023/05/16 09:02:18;;;;;;;;;8.00;7.00;;;;;28.95;31.08;98409.72;6077735;28;96343;-61
2023/05/16 09:05:22;;;;;;;;;7.60;7.60;;;;;29.27;29.78;98416.97;6078105;28;96578;-62
2023/05/16 09:08:27;;;;;;;;;9.00;8.00;;;;;29.45;30.64;98409.13;6077982;28;96278;-62
2023/05/16 09:11:30;;;;;;;;;9.00;8.00;;;;;29.08;28.69;98414.88;6060218;28;96756;-62
2023/05/16 09:14:35;;;;;;;;;6.60;6.60;;;;;28.97;29.50;98416.56;6061419;28;96753;-62
2023/05/16 09:17:40;;;;;;;;;8.80;8.20;;;;;28.80;29.60;98411.31;6061704;28;96156;-62
2023/05/16 09:20:48;;;;;;;;;8.75;8.00;;;;;28.87;29.76;98421.81;6097133;28;96275;-62
2023/05/16 09:23:54;;;;;;;;;6.00;6.00;;;;;29.25;30.02;98431.22;6101706;28;96250;-62
2023/05/16 09:26:57;;;;;;;;;7.40;7.00;;;;;29.57;28.92;98423.75;6100341;28;96327;-62
2023/05/16 09:30:00;;;;;;;;;6.00;6.00;;;;;29.82;29.22;98418.00;6111772;28;96240;-62
2023/05/16 09:33:06;;;;;;;;;7.75;7.75;;;;;30.08;29.05;98421.06;6122839;28;96872;-62
2023/05/16 09:36:10;;;;;;;;;6.80;6.40;;;;;30.21;27.97;98414.19;6124463;28;96243;-62
2023/05/16 09:39:15;;;;;;;;;8.00;7.00;;;;;29.86;26.69;98411.34;6107475;28;98831;-62
2023/05/16 09:42:20;;;;;;;;;8.20;8.00;;;;;29.31;28.21;98409.59;6109334;28;96289;-62
2023/05/16 09:45:23;;;;;;;;;8.00;8.00;;;;;29.03;27.86;98412.34;6124500;28;96262;-62
2023/05/16 09:48:27;;;;;;;;;7.40;7.40;;;;;28.94;27.68;98405.34;6125012;28;96170;-62
2023/05/16 09:51:32;;;;;;;;;8.00;7.50;;;;;29.06;28.61;98399.75;6091444;28;96896;-62
2023/05/16 09:54:36;;;;;;;;;7.00;6.00;;;;;29.13;28.91;98395.19;6124882;28;96261;-62
2023/05/16 09:57:40;;;;;;;;;7.20;7.20;;;;;29.42;29.07;98398.75;6124412;28;96280;-62
2023/05/16 10:00:44;;;;;;;;;7.00;7.00;;;;;29.71;28.29;98396.31;6110761;28;96088;-62
2023/05/16 10:03:47;;;;;;;;;6.60;6.60;;;;;29.81;27.06;98403.28;6063770;28;96316;-62
2023/05/16 10:06:52;;;;;;;;;7.60;7.20;;;;;29.83;26.32;98398.19;6076831;28;96882;-63
2023/05/16 10:09:57;;;;;;;;;7.60;7.00;;;;;29.71;26.68;98387.19;6075909;28;96740;-62
2023/05/16 10:13:05;;;;;;;;;7.00;7.00;;;;;29.85;28.35;98390.31;6077061;28;96345;-62
2023/05/16 10:16:12;;;;;;;;;7.00;7.00;;;;;29.95;27.72;98387.03;6092814;28;96268;-61
2023/05/16 10:19:16;;;;;;;;;9.00;8.75;;;;;29.88;27.92;98372.09;6100280;28;96701;-61
2023/05/16 10:22:22;;;;;;;;;9.25;8.75;;;;;30.07;28.14;98384.09;6100282;28;96207;-62
2023/05/16 10:25:32;;;;;;;;;8.00;7.80;;;;;30.33;27.25;98385.47;6099895;28;96318;-61
2023/05/16 10:28:36;;;;;;;;;9.00;9.00;;;;;30.54;26.95;98383.19;6100456;28;96517;-62
2023/05/16 10:31:40;;;;;;;;;8.00;8.00;;;;;30.80;27.15;98385.28;6099941;28;96125;-62
2023/05/16 10:34:44;;;;;;;;;7.00;7.00;;;;;30.66;24.89;98371.09;6081766;28;98462;-62
2023/05/16 10:37:48;;;;;;;;;8.00;8.00;;;;;30.33;24.42;98371.56;6099106;28;96355;-62
2023/05/16 10:40:54;;;;;;;;;8.00;7.25;;;;;30.12;26.05;98372.72;6080286;28;96266;-62
2023/05/16 10:43:59;;;;;;;;;8.00;8.00;;;;;29.51;25.26;98364.09;6076420;28;96334;-63
2023/05/16 10:47:04;;;;;;;;;8.00;8.00;;;;;29.42;26.70;98357.09;6090880;28;96228;-62
2023/05/16 10:50:08;;;;;;;;;7.00;7.00;;;;;29.30;26.51;98360.72;6098994;28;96558;-62
2023/05/16 10:53:17;;;;;;;;;6.00;6.00;;;;;29.24;27.19;98360.19;6082323;28;98425;-61
2023/05/16 10:56:24;;;;;;;;;9.40;9.00;;;;;29.23;26.88;98363.31;6099165;28;97006;-62
2023/05/16 10:59:28;;;;;;;;;9.40;9.40;;;;;29.25;26.48;98366.53;6098789;28;96394;-62
2023/05/16 11:06:21;;;;;;;;;12.00;11.00;;;;;28.91;29.50;98368.00;6249279;23;98699;-62
2023/05/16 11:09:27;;;;;;;;;11.00;10.25;;;;;28.83;29.08;98375.31;6098903;28;96372;-61
2023/05/16 11:12:42;;;;;;;;;12.50;11.00;;;;;28.69;28.88;98365.75;6089611;28;96644;-61
2023/05/16 11:15:46;;;;;;;;;10.00;9.00;;;;;28.66;30.12;98372.84;6098770;28;96590;-62
2023/05/16 11:18:50;;;;;;;;;11.50;10.50;;;;;28.54;29.45;98370.09;6094519;28;96292;-61
2023/05/16 11:22:14;;;;;;;;;11.00;11.00;;;;;28.39;30.53;98373.63;6098882;28;96590;-61
2023/05/16 11:25:38;;;;;;;;;9.00;9.00;;;;;28.24;30.63;98375.19;6098301;28;97331;-61
2023/05/16 11:28:42;;;;;;;;;10.60;10.00;;;;;28.12;30.22;98375.19;6090368;28;96853;-62
2023/05/16 11:31:46;;;;;;;;;9.20;8.20;;;;;28.02;31.11;98381.19;6062081;28;96706;-63
2023/05/16 11:34:50;;;;;;;;;11.00;10.60;;;;;27.88;30.76;98366.88;6080180;28;97016;-61
2023/05/16 11:37:54;;;;;;;;;9.00;8.00;;;;;27.79;30.18;98368.97;6077303;28;96300;-61
2023/05/16 11:41:02;;;;;;;;;8.50;8.50;;;;;27.66;30.80;98372.91;6082048;28;96577;-62
2023/05/16 11:44:07;;;;;;;;;7.60;7.00;;;;;27.41;31.41;98374.81;6098353;28;96253;-62
2023/05/16 11:47:11;;;;;;;;;11.40;10.40;;;;;26.93;32.01;98381.03;6097872;28;96311;-62
2023/05/16 11:50:16;;;;;;;;;9.60;9.00;;;;;26.76;32.83;98386.72;6083658;28;97061;-62
2023/05/16 11:53:21;;;;;;;;;10.40;10.40;;;;;26.25;32.70;98384.06;6098089;28;96286;-62
2023/05/16 11:56:24;;;;;;;;;8.00;7.25;;;;;26.11;33.06;98389.00;6080894;28;96594;-62
2023/05/16 11:59:30;;;;;;;;;9.60;8.60;;;;;25.99;33.19;98388.94;6097955;28;96367;-62
2023/05/16 12:02:33;;;;;;;;;7.75;7.50;;;;;25.78;34.27;98394.41;6097642;28;96704;-61
2023/05/16 12:05:37;;;;;;;;;9.00;8.00;;;;;25.72;34.18;98394.91;6079641;28;97948;-62
2023/05/16 12:08:50;;;;;;;;;9.40;9.40;;;;;25.62;34.03;98389.78;6093992;28;96404;-61
2023/05/16 12:11:53;;;;;;;;;8.20;8.20;;;;;25.44;34.58;98386.25;6098498;28;96460;-62
2023/05/16 12:14:58;;;;;;;;;9.40;9.00;;;;;25.24;34.74;98395.25;6080677;28;96699;-61
2023/05/16 12:18:02;;;;;;;;;8.20;7.80;;;;;25.27;35.47;98391.81;6097554;28;96469;-62
2023/05/16 12:21:06;;;;;;;;;12.50;11.00;;;;;25.28;35.52;98393.44;6097481;28;96191;-62
2023/05/16 12:24:10;;;;;;;;;9.25;9.00;;;;;25.10;35.40;98392.69;6097257;28;96429;-61
2023/05/16 12:27:22;;;;;;;;;12.00;11.40;;;;;25.03;34.87;98393.19;6081106;28;96908;-62
2023/05/16 12:30:28;;;;;;;;;10.20;10.00;;;;;24.94;35.06;98375.06;6080089;28;96273;-61
2023/05/16 12:33:37;;;;;;;;;10.00;9.00;;;;;24.85;35.49;98388.00;6094741;28;96315;-63
2023/05/16 12:36:41;;;;;;;;;10.00;10.00;;;;;24.80;36.03;98386.25;6086444;28;96377;-63
2023/05/16 12:39:46;;;;;;;;;10.80;9.80;;;;;24.77;36.21;98375.06;6085822;28;96309;-63
2023/05/16 12:42:51;;;;;;;;;10.00;9.00;;;;;24.64;36.32;98389.81;6084192;28;97346;-64
2023/05/16 12:45:57;;;;;;;;;10.60;9.60;;;;;24.54;36.46;98380.75;6082623;28;96462;-63
2023/05/16 12:49:03;;;;;;;;;10.20;10.00;;;;;24.60;36.79;98373.13;6082613;28;96545;-63
2023/05/16 12:52:17;;;;;;;;;12.00;11.00;;;;;24.55;36.93;98362.28;6061325;28;96274;-62
2023/05/16 12:55:22;;;;;;;;;10.00;9.25;;;;;24.66;37.12;98369.06;6055603;28;97642;-62
2023/05/16 12:58:25;;;;;;;;;9.60;9.60;;;;;24.62;36.75;98364.53;6085546;28;96367;-63
2023/05/16 13:01:31;;;;;;;;;9.00;9.00;;;;;24.58;37.04;98364.41;6061380;28;97349;-62
2023/05/16 13:04:35;;;;;;;;;9.75;8.75;;;;;24.43;37.09;98362.13;6078029;28;96484;-63
2023/05/16 13:07:39;;;;;;;;;10.00;10.00;;;;;24.47;37.16;98365.84;6080519;28;96618;-63
2023/05/16 13:10:43;;;;;;;;;9.00;9.00;;;;;24.45;37.78;98365.34;6085183;28;96304;-63
2023/05/16 13:13:46;;;;;;;;;12.00;11.00;;;;;24.42;38.47;98366.81;6088368;28;96323;-63
2023/05/16 13:16:51;;;;;;;;;10.00;9.00;;;;;24.26;38.50;98359.38;6085530;28;97282;-63
2023/05/16 13:19:55;;;;;;;;;11.50;11.00;;;;;24.25;39.86;98364.06;6059881;28;96703;-63
2023/05/16 13:22:58;;;;;;;;;10.00;10.00;;;;;24.20;39.94;98363.41;6076536;28;96185;-62
2023/05/16 13:26:02;;;;;;;;;11.00;10.00;;;;;24.07;40.79;98356.91;6050089;28;97004;-63
2023/05/16 13:29:08;;;;;;;;;10.00;9.40;;;;;24.03;40.73;98362.25;6075460;28;96886;-63
2023/05/16 13:32:13;;;;;;;;;10.75;10.00;;;;;23.91;41.04;98356.53;6058180;28;96868;-63
2023/05/16 13:35:16;;;;;;;;;10.80;10.00;;;;;23.88;41.85;98351.69;6072687;28;96382;-63
2023/05/16 13:38:20;;;;;;;;;12.00;12.00;;;;;23.86;42.42;98342.13;6086976;28;96546;-62
2023/05/16 13:41:23;;;;;;;;;11.00;10.00;;;;;23.90;43.09;98343.91;6089868;28;96909;-63
2023/05/16 13:44:26;;;;;;;;;10.00;10.00;;;;;23.88;43.41;98345.38;6069700;28;98585;-63
2023/05/16 13:47:31;;;;;;;;;11.00;11.00;;;;;23.79;43.89;98341.81;6069496;28;97040;-63
2023/05/16 13:50:34;;;;;;;;;15.00;15.00;;;;;23.89;44.87;98341.50;6052002;28;98373;-63
2023/05/16 13:53:45;;;;;;;;;12.00;10.00;;;;;23.86;44.87;98331.09;6056129;28;98462;-63
2023/05/16 13:56:49;;;;;;;;;10.00;9.60;;;;;24.04;45.69;98336.31;6066769;28;96685;-64
2023/05/16 13:59:52;;;;;;;;;12.20;11.20;;;;;24.12;44.98;98335.53;6077182;28;96512;-63
2023/05/16 14:03:17;;;;;;;;;12.40;11.00;;;;;24.19;44.96;98337.03;6078706;28;96349;-63
2023/05/16 14:06:20;;;;;;;;;12.20;11.20;;;;;24.30;45.06;98341.03;6083937;28;97170;-63
2023/05/16 14:09:24;;;;;;;;;14.00;13.50;;;;;24.33;44.75;98340.41;6046173;28;96294;-62
2023/05/16 14:12:27;;;;;;;;;12.00;12.00;;;;;24.24;44.18;98336.84;6060814;28;96312;-63
2023/05/16 14:15:30;;;;;;;;;10.50;10.50;;;;;24.20;44.04;98335.84;6044756;28;96338;-63
2023/05/16 14:18:35;;;;;;;;;11.40;11.00;;;;;24.16;44.42;98333.75;6084061;28;96281;-63
2023/05/16 14:21:39;;;;;;;;;11.00;11.00;;;;;24.12;44.82;98323.69;6085523;28;96299;-64
2023/05/16 14:24:43;;;;;;;;;9.00;9.00;;;;;24.15;44.55;98326.59;6082559;28;96929;-63
2023/05/16 14:27:50;;;;;;;;;9.25;8.50;;;;;24.11;43.75;98325.63;6051321;28;96697;-63
2023/05/16 14:30:54;;;;;;;;;10.20;9.60;;;;;23.98;44.23;98328.53;6061184;28;96391;-63